SBI5503 UNNT-UAAA
Flight info
| Callsign | SBI5503 |
|---|---|
| Flight time | 1h 52m |
| Altitude | 36000 |
| Route | ALIRO R484 RUBID G121 ELSUT L143 GENGA P984 GOGDO |
| Aircraft | E170/M-SDE2E3FGHIRWXY/LB1 |
Departure
| Time | 2026-04-25 08:28 |
|---|---|
| Airport | Novosibirsk Tolmachevo Airport (UNNT) |
Arrival
| Time | 2026-04-25 10:21 |
|---|---|
| Airport | Almaty International Airport (UAAA) |
| Time | Latitude | Longitude | Altitude | Speed | Heading |
|---|---|---|---|---|---|
| 2026-04-25 08:03 | 55.00929 | 82.66203 | 371 ft | 0 kts | 170° |
| 2026-04-25 08:18 | 55.00935 | 82.66201 | 371 ft | 4 kts | 172° |
| 2026-04-25 08:18 | 55.00958 | 82.66198 | 371 ft | 1 kts | 170° |
| 2026-04-25 08:18 | 55.00981 | 82.66195 | 371 ft | 4 kts | 203° |
| 2026-04-25 08:19 | 55.00989 | 82.66220 | 371 ft | 4 kts | 249° |
| 2026-04-25 08:19 | 55.01003 | 82.66259 | 371 ft | 4 kts | 213° |
| 2026-04-25 08:19 | 55.01025 | 82.66262 | 371 ft | 4 kts | 172° |
| 2026-04-25 08:19 | 55.01052 | 82.66255 | 371 ft | 4 kts | 172° |
| 2026-04-25 08:20 | 55.01067 | 82.66251 | 371 ft | 0 kts | 171° |
| 2026-04-25 08:23 | 55.01063 | 82.66253 | 371 ft | 2 kts | 171° |
| 2026-04-25 08:23 | 55.01043 | 82.66258 | 371 ft | 6 kts | 171° |
| 2026-04-25 08:24 | 55.01012 | 82.66287 | 371 ft | 5 kts | 102° |
| 2026-04-25 08:24 | 55.01020 | 82.66375 | 371 ft | 9 kts | 69° |
| 2026-04-25 08:24 | 55.01045 | 82.66489 | 371 ft | 11 kts | 68° |
| 2026-04-25 08:24 | 55.01068 | 82.66588 | 371 ft | 9 kts | 69° |
| 2026-04-25 08:25 | 55.01113 | 82.66656 | 371 ft | 10 kts | 7° |
| 2026-04-25 08:25 | 55.01191 | 82.66641 | 371 ft | 12 kts | 351° |
| 2026-04-25 08:25 | 55.01280 | 82.66618 | 371 ft | 11 kts | 349° |
| 2026-04-25 08:25 | 55.01326 | 82.66606 | 371 ft | 7 kts | 358° |
| 2026-04-25 08:26 | 55.01376 | 82.66592 | 372 ft | 8 kts | 318° |
| 2026-04-25 08:26 | 55.01377 | 82.66517 | 372 ft | 7 kts | 251° |
| 2026-04-25 08:26 | 55.01373 | 82.66494 | 372 ft | 0 kts | 259° |
| 2026-04-25 08:27 | 55.01370 | 82.66456 | 372 ft | 13 kts | 260° |
| 2026-04-25 08:28 | 55.01313 | 82.65825 | 370 ft | 92 kts | 260° |
| 2026-04-25 08:28 | 55.01171 | 82.64299 | 422 ft | 156 kts | 259° |
| 2026-04-25 08:28 | 55.00995 | 82.62346 | 1229 ft | 164 kts | 259° |
| 2026-04-25 08:28 | 55.00777 | 82.60366 | 2195 ft | 168 kts | 256° |
| 2026-04-25 08:29 | 55.00540 | 82.58369 | 3180 ft | 167 kts | 257° |
| 2026-04-25 08:29 | 55.00285 | 82.56367 | 3917 ft | 173 kts | 257° |
| 2026-04-25 08:29 | 55.00051 | 82.54330 | 4814 ft | 165 kts | 258° |
| 2026-04-25 08:29 | 54.99778 | 82.52363 | 5393 ft | 179 kts | 249° |
| 2026-04-25 08:30 | 54.99085 | 82.50391 | 5700 ft | 204 kts | 228° |
| 2026-04-25 08:30 | 54.97885 | 82.48859 | 6269 ft | 226 kts | 208° |
| 2026-04-25 08:30 | 54.96265 | 82.48019 | 6554 ft | 260 kts | 193° |
| 2026-04-25 08:30 | 54.94411 | 82.47541 | 7159 ft | 275 kts | 190° |
| 2026-04-25 08:31 | 54.92506 | 82.47086 | 8046 ft | 277 kts | 191° |
| 2026-04-25 08:31 | 54.90616 | 82.46598 | 8931 ft | 279 kts | 191° |
| 2026-04-25 08:31 | 54.88695 | 82.46096 | 9865 ft | 280 kts | 191° |
| 2026-04-25 08:31 | 54.86739 | 82.45567 | 10439 ft | 294 kts | 192° |
| 2026-04-25 08:32 | 54.84645 | 82.45027 | 10800 ft | 315 kts | 191° |
| 2026-04-25 08:32 | 54.82403 | 82.44517 | 11202 ft | 333 kts | 191° |
| 2026-04-25 08:32 | 54.80072 | 82.44015 | 11935 ft | 340 kts | 191° |
| 2026-04-25 08:32 | 54.77710 | 82.43494 | 12806 ft | 343 kts | 192° |
| 2026-04-25 08:33 | 54.75328 | 82.42951 | 13748 ft | 346 kts | 193° |
| 2026-04-25 08:33 | 54.72922 | 82.42382 | 14635 ft | 350 kts | 193° |
| 2026-04-25 08:33 | 54.70528 | 82.41815 | 15531 ft | 353 kts | 192° |
| 2026-04-25 08:33 | 54.68085 | 82.41241 | 16382 ft | 357 kts | 192° |
| 2026-04-25 08:34 | 54.65605 | 82.40666 | 17191 ft | 361 kts | 192° |
| 2026-04-25 08:34 | 54.63115 | 82.40115 | 18006 ft | 364 kts | 191° |
| 2026-04-25 08:34 | 54.60578 | 82.39570 | 18749 ft | 369 kts | 191° |
| 2026-04-25 08:34 | 54.58011 | 82.39042 | 19412 ft | 374 kts | 190° |
| 2026-04-25 08:35 | 54.55412 | 82.38532 | 20068 ft | 378 kts | 190° |
| 2026-04-25 08:35 | 54.52778 | 82.38032 | 20685 ft | 382 kts | 189° |
| 2026-04-25 08:35 | 54.51016 | 82.37710 | 21078 ft | 385 kts | 189° |
| 2026-04-25 08:35 | 54.48332 | 82.37236 | 21650 ft | 389 kts | 189° |
| 2026-04-25 08:36 | 54.45623 | 82.36776 | 22165 ft | 393 kts | 188° |
| 2026-04-25 08:36 | 54.42877 | 82.36325 | 22732 ft | 397 kts | 188° |
| 2026-04-25 08:36 | 54.40109 | 82.35876 | 23286 ft | 401 kts | 188° |
| 2026-04-25 08:36 | 54.37313 | 82.35431 | 23835 ft | 405 kts | 188° |
| 2026-04-25 08:37 | 54.34496 | 82.34989 | 24375 ft | 408 kts | 188° |
| 2026-04-25 08:37 | 54.31664 | 82.34552 | 24928 ft | 411 kts | 188° |
| 2026-04-25 08:37 | 54.28806 | 82.34123 | 25440 ft | 414 kts | 188° |
| 2026-04-25 08:37 | 54.25929 | 82.33707 | 25948 ft | 416 kts | 187° |
| 2026-04-25 08:38 | 54.23035 | 82.33302 | 26397 ft | 419 kts | 187° |
| 2026-04-25 08:38 | 54.20113 | 82.32905 | 26845 ft | 422 kts | 187° |
| 2026-04-25 08:38 | 54.17220 | 82.32521 | 27255 ft | 425 kts | 187° |
| 2026-04-25 08:38 | 54.14259 | 82.32138 | 27682 ft | 427 kts | 187° |
| 2026-04-25 08:39 | 54.11286 | 82.31761 | 28103 ft | 429 kts | 187° |
| 2026-04-25 08:39 | 54.08297 | 82.31391 | 28511 ft | 432 kts | 187° |
| 2026-04-25 08:39 | 54.05292 | 82.31028 | 28904 ft | 434 kts | 187° |
| 2026-04-25 08:39 | 54.02302 | 82.30417 | 29389 ft | 428 kts | 196° |
| 2026-04-25 08:40 | 53.99462 | 82.29151 | 30376 ft | 416 kts | 198° |
| 2026-04-25 08:40 | 53.96691 | 82.27828 | 30909 ft | 413 kts | 198° |
| 2026-04-25 08:40 | 53.93920 | 82.26491 | 31248 ft | 415 kts | 198° |
| 2026-04-25 08:40 | 53.91143 | 82.25152 | 31618 ft | 415 kts | 198° |
| 2026-04-25 08:41 | 53.88361 | 82.23815 | 31841 ft | 418 kts | 198° |
| 2026-04-25 08:41 | 53.85553 | 82.22467 | 32114 ft | 420 kts | 198° |
| 2026-04-25 08:41 | 53.82747 | 82.21124 | 32459 ft | 420 kts | 198° |
| 2026-04-25 08:41 | 53.79913 | 82.19769 | 32623 ft | 424 kts | 198° |
| 2026-04-25 08:42 | 53.77074 | 82.18415 | 32954 ft | 423 kts | 198° |
| 2026-04-25 08:42 | 53.74227 | 82.17058 | 33171 ft | 426 kts | 198° |
| 2026-04-25 08:42 | 53.71403 | 82.15714 | 33375 ft | 428 kts | 198° |
| 2026-04-25 08:42 | 53.68497 | 82.14332 | 33717 ft | 427 kts | 198° |
| 2026-04-25 08:43 | 53.65653 | 82.12981 | 33848 ft | 431 kts | 198° |
| 2026-04-25 08:43 | 53.62758 | 82.11608 | 34107 ft | 432 kts | 198° |
| 2026-04-25 08:43 | 53.59872 | 82.10242 | 34375 ft | 431 kts | 198° |
| 2026-04-25 08:43 | 53.56982 | 82.08879 | 34614 ft | 431 kts | 198° |
| 2026-04-25 08:44 | 53.54097 | 82.07523 | 34828 ft | 431 kts | 198° |
| 2026-04-25 08:44 | 53.51207 | 82.06167 | 35042 ft | 431 kts | 198° |
| 2026-04-25 08:44 | 53.48318 | 82.04812 | 35244 ft | 431 kts | 198° |
| 2026-04-25 08:44 | 53.45424 | 82.03457 | 35450 ft | 431 kts | 198° |
| 2026-04-25 08:45 | 53.42532 | 82.02104 | 35647 ft | 431 kts | 198° |
| 2026-04-25 08:45 | 53.39679 | 82.00772 | 35856 ft | 431 kts | 198° |
| 2026-04-25 08:45 | 53.36791 | 81.99426 | 36141 ft | 430 kts | 198° |
| 2026-04-25 08:46 | 53.30958 | 81.96708 | 36169 ft | 438 kts | 198° |
| 2026-04-25 08:46 | 53.25059 | 81.93970 | 36078 ft | 439 kts | 198° |
| 2026-04-25 08:47 | 53.19173 | 81.91247 | 36096 ft | 439 kts | 198° |
| 2026-04-25 08:47 | 53.13279 | 81.88528 | 36094 ft | 440 kts | 198° |
| 2026-04-25 08:48 | 53.07371 | 81.85810 | 36096 ft | 440 kts | 198° |
| 2026-04-25 08:48 | 53.01469 | 81.83101 | 36093 ft | 440 kts | 198° |
| 2026-04-25 08:49 | 52.95602 | 81.80416 | 36097 ft | 440 kts | 198° |
| 2026-04-25 08:49 | 52.89697 | 81.77722 | 36095 ft | 440 kts | 198° |
| 2026-04-25 08:50 | 52.83781 | 81.75030 | 36098 ft | 441 kts | 198° |
| 2026-04-25 08:50 | 52.77861 | 81.72354 | 36098 ft | 441 kts | 198° |
| 2026-04-25 08:51 | 52.71938 | 81.69687 | 36097 ft | 441 kts | 197° |
| 2026-04-25 08:51 | 52.66010 | 81.67024 | 36105 ft | 441 kts | 197° |
| 2026-04-25 08:52 | 52.60080 | 81.64368 | 36102 ft | 441 kts | 197° |
| 2026-04-25 08:52 | 52.54154 | 81.61720 | 36098 ft | 441 kts | 197° |
| 2026-04-25 08:53 | 52.48258 | 81.59093 | 36102 ft | 442 kts | 197° |
| 2026-04-25 08:53 | 52.42322 | 81.56456 | 36103 ft | 442 kts | 197° |
| 2026-04-25 08:54 | 52.36374 | 81.53821 | 36100 ft | 442 kts | 197° |
| 2026-04-25 08:54 | 52.30429 | 81.51195 | 36105 ft | 443 kts | 197° |
| 2026-04-25 08:55 | 52.24479 | 81.48574 | 36101 ft | 443 kts | 197° |
| 2026-04-25 08:55 | 52.18517 | 81.45954 | 36101 ft | 443 kts | 197° |
| 2026-04-25 08:56 | 52.12592 | 81.43359 | 36106 ft | 443 kts | 197° |
| 2026-04-25 08:56 | 52.06637 | 81.40757 | 36106 ft | 443 kts | 197° |
| 2026-04-25 08:57 | 52.00673 | 81.38158 | 36107 ft | 444 kts | 197° |
| 2026-04-25 08:57 | 51.94704 | 81.35565 | 36103 ft | 444 kts | 197° |
| 2026-04-25 08:58 | 51.88738 | 81.32980 | 36108 ft | 444 kts | 197° |
| 2026-04-25 08:58 | 51.82766 | 81.30399 | 36108 ft | 444 kts | 197° |
| 2026-04-25 08:59 | 51.76790 | 81.27824 | 36111 ft | 444 kts | 197° |
| 2026-04-25 08:59 | 51.70815 | 81.25256 | 36111 ft | 445 kts | 197° |
| 2026-04-25 09:00 | 51.64872 | 81.22709 | 36108 ft | 445 kts | 196° |
| 2026-04-25 09:00 | 51.58893 | 81.20093 | 36118 ft | 444 kts | 201° |
| 2026-04-25 09:01 | 51.53286 | 81.15956 | 36114 ft | 444 kts | 207° |
| 2026-04-25 09:01 | 51.47763 | 81.11557 | 36111 ft | 443 kts | 207° |
| 2026-04-25 09:02 | 51.42235 | 81.07183 | 36115 ft | 444 kts | 207° |
| 2026-04-25 09:02 | 51.36698 | 81.02824 | 36115 ft | 443 kts | 207° |
| 2026-04-25 09:03 | 51.31166 | 80.98481 | 36111 ft | 444 kts | 207° |
| 2026-04-25 09:03 | 51.25619 | 80.94141 | 36118 ft | 443 kts | 207° |
| 2026-04-25 09:04 | 51.20085 | 80.89800 | 36123 ft | 443 kts | 208° |
| 2026-04-25 09:04 | 51.14604 | 80.85415 | 36118 ft | 444 kts | 208° |
| 2026-04-25 09:05 | 51.09082 | 80.81018 | 36116 ft | 444 kts | 208° |
| 2026-04-25 09:05 | 51.03543 | 80.76627 | 36115 ft | 444 kts | 208° |
| 2026-04-25 09:06 | 50.98356 | 80.72527 | 36118 ft | 444 kts | 208° |
| 2026-04-25 09:06 | 50.92825 | 80.68166 | 36119 ft | 444 kts | 208° |
| 2026-04-25 09:07 | 50.87284 | 80.63809 | 36114 ft | 444 kts | 208° |
| 2026-04-25 09:07 | 50.81783 | 80.59495 | 36115 ft | 444 kts | 208° |
| 2026-04-25 09:08 | 50.76244 | 80.55163 | 36119 ft | 444 kts | 208° |
| 2026-04-25 09:08 | 50.70695 | 80.50834 | 36120 ft | 444 kts | 208° |
| 2026-04-25 09:09 | 50.65145 | 80.46515 | 36120 ft | 445 kts | 208° |
| 2026-04-25 09:09 | 50.59590 | 80.42205 | 36124 ft | 445 kts | 208° |
| 2026-04-25 09:10 | 50.54071 | 80.37933 | 36128 ft | 445 kts | 208° |
| 2026-04-25 09:10 | 50.48514 | 80.33644 | 36128 ft | 445 kts | 208° |
| 2026-04-25 09:11 | 50.40173 | 80.27228 | 36132 ft | 445 kts | 208° |
| 2026-04-25 09:11 | 50.34604 | 80.22958 | 36130 ft | 445 kts | 207° |
| 2026-04-25 09:12 | 50.28947 | 80.18973 | 36127 ft | 446 kts | 205° |
| 2026-04-25 09:12 | 50.23298 | 80.15083 | 36127 ft | 446 kts | 206° |
| 2026-04-25 09:13 | 50.17629 | 80.11143 | 36125 ft | 446 kts | 206° |
| 2026-04-25 09:13 | 50.11952 | 80.07201 | 36124 ft | 446 kts | 206° |
| 2026-04-25 09:14 | 50.06268 | 80.03261 | 36118 ft | 446 kts | 206° |
| 2026-04-25 09:14 | 50.00589 | 79.99335 | 36116 ft | 446 kts | 206° |
| 2026-04-25 09:15 | 49.94905 | 79.95417 | 36116 ft | 446 kts | 206° |
| 2026-04-25 09:15 | 49.89219 | 79.91507 | 36118 ft | 446 kts | 206° |
| 2026-04-25 09:16 | 49.83581 | 79.87639 | 36114 ft | 446 kts | 206° |
| 2026-04-25 09:16 | 49.77898 | 79.83752 | 36112 ft | 446 kts | 206° |
| 2026-04-25 09:17 | 49.69369 | 79.77937 | 36105 ft | 446 kts | 206° |
| 2026-04-25 09:18 | 49.63691 | 79.74081 | 36108 ft | 446 kts | 205° |
| 2026-04-25 09:18 | 49.57997 | 79.70261 | 36112 ft | 446 kts | 205° |
| 2026-04-25 09:19 | 49.52302 | 79.66447 | 36108 ft | 446 kts | 205° |
| 2026-04-25 09:19 | 49.46612 | 79.62642 | 36100 ft | 446 kts | 206° |
| 2026-04-25 09:20 | 49.40920 | 79.58847 | 36118 ft | 445 kts | 206° |
| 2026-04-25 09:20 | 49.35237 | 79.55066 | 36103 ft | 445 kts | 206° |
| 2026-04-25 09:21 | 49.29553 | 79.51294 | 36106 ft | 445 kts | 206° |
| 2026-04-25 09:21 | 49.23899 | 79.47551 | 36115 ft | 445 kts | 206° |
| 2026-04-25 09:22 | 49.18199 | 79.43788 | 36114 ft | 445 kts | 206° |
| 2026-04-25 09:22 | 49.12511 | 79.40042 | 36108 ft | 445 kts | 206° |
| 2026-04-25 09:23 | 49.06812 | 79.36298 | 36113 ft | 445 kts | 206° |
| 2026-04-25 09:23 | 49.01120 | 79.32568 | 36114 ft | 446 kts | 206° |
| 2026-04-25 09:24 | 48.96379 | 79.29469 | 36117 ft | 446 kts | 206° |
| 2026-04-25 09:24 | 48.90677 | 79.25749 | 36117 ft | 446 kts | 206° |
| 2026-04-25 09:25 | 48.84971 | 79.22036 | 36124 ft | 446 kts | 206° |
| 2026-04-25 09:25 | 48.79298 | 79.18354 | 36123 ft | 446 kts | 206° |
| 2026-04-25 09:26 | 48.73586 | 79.14656 | 36128 ft | 446 kts | 206° |
| 2026-04-25 09:26 | 48.67909 | 79.10989 | 36124 ft | 446 kts | 206° |
| 2026-04-25 09:27 | 48.62193 | 79.07307 | 36128 ft | 446 kts | 206° |
| 2026-04-25 09:27 | 48.56476 | 79.03633 | 36128 ft | 447 kts | 206° |
| 2026-04-25 09:28 | 48.50755 | 78.99966 | 36129 ft | 447 kts | 206° |
| 2026-04-25 09:28 | 48.45034 | 78.96307 | 36123 ft | 447 kts | 206° |
| 2026-04-25 09:29 | 48.39313 | 78.92658 | 36126 ft | 446 kts | 206° |
| 2026-04-25 09:29 | 48.33625 | 78.89037 | 36126 ft | 446 kts | 206° |
| 2026-04-25 09:30 | 48.27906 | 78.85389 | 36122 ft | 447 kts | 206° |
| 2026-04-25 09:30 | 48.22185 | 78.81747 | 36122 ft | 446 kts | 206° |
| 2026-04-25 09:31 | 48.16457 | 78.78112 | 36122 ft | 447 kts | 206° |
| 2026-04-25 09:31 | 48.10727 | 78.74483 | 36120 ft | 447 kts | 206° |
| 2026-04-25 09:32 | 48.05000 | 78.70865 | 36121 ft | 447 kts | 206° |
| 2026-04-25 09:32 | 47.99263 | 78.67251 | 36113 ft | 447 kts | 206° |
| 2026-04-25 09:33 | 47.93529 | 78.63646 | 36118 ft | 447 kts | 206° |
| 2026-04-25 09:33 | 47.87830 | 78.60072 | 36119 ft | 447 kts | 206° |
| 2026-04-25 09:34 | 47.82094 | 78.56484 | 36115 ft | 447 kts | 206° |
| 2026-04-25 09:34 | 47.76355 | 78.52903 | 36114 ft | 447 kts | 206° |
| 2026-04-25 09:35 | 47.70624 | 78.49335 | 36119 ft | 447 kts | 206° |
| 2026-04-25 09:35 | 47.64877 | 78.45765 | 36114 ft | 447 kts | 206° |
| 2026-04-25 09:36 | 47.59136 | 78.42208 | 36115 ft | 447 kts | 206° |
| 2026-04-25 09:36 | 47.53396 | 78.38659 | 36111 ft | 447 kts | 206° |
| 2026-04-25 09:37 | 47.47694 | 78.35136 | 36115 ft | 447 kts | 206° |
| 2026-04-25 09:37 | 47.41957 | 78.31599 | 36115 ft | 447 kts | 206° |
| 2026-04-25 09:38 | 47.36207 | 78.28064 | 36110 ft | 447 kts | 206° |
| 2026-04-25 09:38 | 47.30459 | 78.24539 | 36113 ft | 447 kts | 206° |
| 2026-04-25 09:39 | 47.24708 | 78.21020 | 36110 ft | 448 kts | 206° |
| 2026-04-25 09:39 | 47.18950 | 78.17505 | 36112 ft | 448 kts | 206° |
| 2026-04-25 09:40 | 47.10340 | 78.12265 | 36112 ft | 448 kts | 206° |
| 2026-04-25 09:40 | 47.04577 | 78.08767 | 36113 ft | 448 kts | 206° |
| 2026-04-25 09:41 | 46.98816 | 78.05279 | 36114 ft | 448 kts | 206° |
| 2026-04-25 09:41 | 46.93051 | 78.01796 | 36113 ft | 448 kts | 206° |
| 2026-04-25 09:42 | 46.87277 | 77.98316 | 36116 ft | 449 kts | 206° |
| 2026-04-25 09:42 | 46.81502 | 77.94844 | 36127 ft | 449 kts | 206° |
| 2026-04-25 09:43 | 46.75722 | 77.91377 | 36114 ft | 449 kts | 206° |
| 2026-04-25 09:43 | 46.69945 | 77.87919 | 36124 ft | 449 kts | 206° |
| 2026-04-25 09:44 | 46.64196 | 77.84488 | 36124 ft | 449 kts | 206° |
| 2026-04-25 09:44 | 46.58403 | 77.81052 | 36125 ft | 450 kts | 206° |
| 2026-04-25 09:45 | 46.52595 | 77.77614 | 36125 ft | 450 kts | 206° |
| 2026-04-25 09:45 | 46.46806 | 77.74194 | 36123 ft | 449 kts | 206° |
| 2026-04-25 09:46 | 46.41014 | 77.70779 | 36124 ft | 449 kts | 206° |
| 2026-04-25 09:46 | 46.35219 | 77.67371 | 36120 ft | 449 kts | 206° |
| 2026-04-25 09:47 | 46.29456 | 77.64039 | 36112 ft | 451 kts | 202° |
| 2026-04-25 09:47 | 46.26341 | 77.63221 | 36122 ft | 461 kts | 185° |
| 2026-04-25 09:47 | 46.23122 | 77.63610 | 36147 ft | 467 kts | 176° |
| 2026-04-25 09:48 | 46.16688 | 77.65034 | 36099 ft | 467 kts | 175° |
| 2026-04-25 09:48 | 46.10259 | 77.66444 | 36113 ft | 467 kts | 175° |
| 2026-04-25 09:49 | 46.03837 | 77.67822 | 36114 ft | 467 kts | 175° |
| 2026-04-25 09:49 | 45.97409 | 77.69194 | 36112 ft | 466 kts | 176° |
| 2026-04-25 09:50 | 45.90988 | 77.70560 | 36112 ft | 466 kts | 176° |
| 2026-04-25 09:50 | 45.84575 | 77.71921 | 36115 ft | 466 kts | 176° |
| 2026-04-25 09:51 | 45.78158 | 77.73279 | 36121 ft | 466 kts | 176° |
| 2026-04-25 09:51 | 45.71787 | 77.74624 | 36116 ft | 465 kts | 176° |
| 2026-04-25 09:52 | 45.65380 | 77.75974 | 36114 ft | 465 kts | 176° |
| 2026-04-25 09:52 | 45.58971 | 77.77325 | 36110 ft | 465 kts | 176° |
| 2026-04-25 09:53 | 45.52570 | 77.78666 | 36116 ft | 464 kts | 176° |
| 2026-04-25 09:53 | 45.46182 | 77.79602 | 36138 ft | 455 kts | 189° |
| 2026-04-25 09:54 | 45.40037 | 77.77778 | 36127 ft | 451 kts | 199° |
| 2026-04-25 09:54 | 45.33960 | 77.75597 | 36112 ft | 450 kts | 198° |
| 2026-04-25 09:55 | 45.27909 | 77.73481 | 36108 ft | 450 kts | 198° |
| 2026-04-25 09:55 | 45.21826 | 77.71374 | 36109 ft | 450 kts | 198° |
| 2026-04-25 09:56 | 45.15741 | 77.69272 | 36117 ft | 450 kts | 198° |
| 2026-04-25 09:56 | 45.09664 | 77.67179 | 36114 ft | 449 kts | 198° |
| 2026-04-25 09:57 | 45.03587 | 77.65089 | 36108 ft | 448 kts | 198° |
| 2026-04-25 09:57 | 44.97523 | 77.62972 | 36116 ft | 449 kts | 198° |
| 2026-04-25 09:58 | 44.91464 | 77.60847 | 36113 ft | 448 kts | 198° |
| 2026-04-25 09:58 | 44.85407 | 77.58732 | 36119 ft | 448 kts | 198° |
| 2026-04-25 09:59 | 44.79376 | 77.56632 | 35997 ft | 447 kts | 198° |
| 2026-04-25 09:59 | 44.77342 | 77.55926 | 35812 ft | 444 kts | 198° |
| 2026-04-25 09:59 | 44.73383 | 77.54552 | 35493 ft | 442 kts | 198° |
| 2026-04-25 10:00 | 44.70387 | 77.53511 | 35251 ft | 444 kts | 198° |
| 2026-04-25 10:00 | 44.67387 | 77.52471 | 35019 ft | 445 kts | 198° |
| 2026-04-25 10:00 | 44.64381 | 77.51430 | 34778 ft | 445 kts | 198° |
| 2026-04-25 10:00 | 44.61369 | 77.50388 | 34538 ft | 446 kts | 198° |
| 2026-04-25 10:01 | 44.58351 | 77.49345 | 34299 ft | 447 kts | 198° |
| 2026-04-25 10:01 | 44.55326 | 77.48301 | 34237 ft | 444 kts | 198° |
| 2026-04-25 10:01 | 44.52300 | 77.47257 | 33809 ft | 454 kts | 198° |
| 2026-04-25 10:01 | 44.49227 | 77.46198 | 33203 ft | 452 kts | 198° |
| 2026-04-25 10:02 | 44.46167 | 77.45147 | 32538 ft | 454 kts | 198° |
| 2026-04-25 10:02 | 44.43125 | 77.44102 | 31911 ft | 457 kts | 198° |
| 2026-04-25 10:02 | 44.40034 | 77.43042 | 31321 ft | 456 kts | 198° |
| 2026-04-25 10:02 | 44.36955 | 77.41992 | 30695 ft | 453 kts | 198° |
| 2026-04-25 10:03 | 44.33913 | 77.40957 | 30090 ft | 448 kts | 198° |
| 2026-04-25 10:03 | 44.30897 | 77.39931 | 29523 ft | 441 kts | 198° |
| 2026-04-25 10:03 | 44.27923 | 77.38918 | 28905 ft | 438 kts | 198° |
| 2026-04-25 10:03 | 44.24972 | 77.37914 | 28352 ft | 435 kts | 198° |
| 2026-04-25 10:04 | 44.22039 | 77.36917 | 27774 ft | 432 kts | 197° |
| 2026-04-25 10:04 | 44.19138 | 77.35932 | 27180 ft | 429 kts | 197° |
| 2026-04-25 10:04 | 44.16254 | 77.34954 | 26638 ft | 424 kts | 197° |
| 2026-04-25 10:04 | 44.13422 | 77.33994 | 26068 ft | 421 kts | 197° |
| 2026-04-25 10:05 | 44.10566 | 77.33030 | 25510 ft | 413 kts | 197° |
| 2026-04-25 10:05 | 44.07839 | 77.32108 | 24976 ft | 407 kts | 197° |
| 2026-04-25 10:05 | 44.05088 | 77.31178 | 24436 ft | 403 kts | 197° |
| 2026-04-25 10:05 | 44.02377 | 77.30261 | 23899 ft | 402 kts | 197° |
| 2026-04-25 10:06 | 43.99661 | 77.29343 | 23325 ft | 398 kts | 197° |
| 2026-04-25 10:06 | 43.96988 | 77.28442 | 22843 ft | 394 kts | 197° |
| 2026-04-25 10:06 | 43.94332 | 77.27547 | 22303 ft | 391 kts | 197° |
| 2026-04-25 10:06 | 43.91692 | 77.26658 | 21804 ft | 389 kts | 197° |
| 2026-04-25 10:07 | 43.89074 | 77.25779 | 21273 ft | 385 kts | 197° |
| 2026-04-25 10:07 | 43.86481 | 77.24909 | 20769 ft | 381 kts | 197° |
| 2026-04-25 10:07 | 43.83909 | 77.24046 | 20264 ft | 378 kts | 197° |
| 2026-04-25 10:07 | 43.81362 | 77.23191 | 19771 ft | 375 kts | 197° |
| 2026-04-25 10:08 | 43.78865 | 77.22354 | 19270 ft | 372 kts | 197° |
| 2026-04-25 10:08 | 43.76361 | 77.21516 | 18786 ft | 369 kts | 197° |
| 2026-04-25 10:08 | 43.73873 | 77.20685 | 18271 ft | 367 kts | 197° |
| 2026-04-25 10:08 | 43.71409 | 77.19863 | 17808 ft | 362 kts | 197° |
| 2026-04-25 10:09 | 43.68964 | 77.19047 | 17313 ft | 360 kts | 197° |
| 2026-04-25 10:09 | 43.66534 | 77.18237 | 16849 ft | 358 kts | 197° |
| 2026-04-25 10:09 | 43.64122 | 77.17432 | 16373 ft | 355 kts | 197° |
| 2026-04-25 10:09 | 43.61721 | 77.16631 | 15907 ft | 353 kts | 197° |
| 2026-04-25 10:10 | 43.59340 | 77.15838 | 15446 ft | 351 kts | 196° |
| 2026-04-25 10:10 | 43.56983 | 77.15053 | 14988 ft | 345 kts | 196° |
| 2026-04-25 10:10 | 43.54677 | 77.14288 | 14528 ft | 337 kts | 196° |
| 2026-04-25 10:10 | 43.52422 | 77.13541 | 14089 ft | 330 kts | 196° |
| 2026-04-25 10:11 | 43.50319 | 77.12455 | 13630 ft | 318 kts | 216° |
| 2026-04-25 10:11 | 43.48823 | 77.10344 | 13297 ft | 303 kts | 238° |
| 2026-04-25 10:11 | 43.47779 | 77.07871 | 12877 ft | 296 kts | 243° |
| 2026-04-25 10:11 | 43.46761 | 77.05429 | 12500 ft | 291 kts | 240° |
| 2026-04-25 10:12 | 43.45699 | 77.03087 | 12113 ft | 287 kts | 238° |
| 2026-04-25 10:12 | 43.44601 | 77.00805 | 11731 ft | 284 kts | 237° |
| 2026-04-25 10:12 | 43.42635 | 76.96838 | 11074 ft | 283 kts | 237° |
| 2026-04-25 10:13 | 43.41517 | 76.94603 | 10697 ft | 284 kts | 237° |
| 2026-04-25 10:13 | 43.40396 | 76.92364 | 10266 ft | 284 kts | 237° |
| 2026-04-25 10:13 | 43.39268 | 76.90114 | 9764 ft | 285 kts | 237° |
| 2026-04-25 10:13 | 43.38155 | 76.87896 | 9424 ft | 278 kts | 236° |
| 2026-04-25 10:14 | 43.37065 | 76.85725 | 9050 ft | 275 kts | 236° |
| 2026-04-25 10:14 | 43.35997 | 76.83603 | 8710 ft | 264 kts | 236° |
| 2026-04-25 10:14 | 43.34973 | 76.81564 | 8386 ft | 255 kts | 237° |
| 2026-04-25 10:14 | 43.33981 | 76.79584 | 8037 ft | 247 kts | 237° |
| 2026-04-25 10:15 | 43.33021 | 76.77673 | 7736 ft | 241 kts | 237° |
| 2026-04-25 10:15 | 43.31887 | 76.75982 | 7366 ft | 246 kts | 213° |
| 2026-04-25 10:15 | 43.30253 | 76.75374 | 7034 ft | 247 kts | 177° |
| 2026-04-25 10:15 | 43.28662 | 76.76170 | 6761 ft | 244 kts | 149° |
| 2026-04-25 10:16 | 43.27264 | 76.77468 | 6413 ft | 243 kts | 145° |
| 2026-04-25 10:16 | 43.25888 | 76.78792 | 6102 ft | 240 kts | 141° |
| 2026-04-25 10:16 | 43.24817 | 76.80492 | 5839 ft | 235 kts | 116° |
| 2026-04-25 10:16 | 43.24518 | 76.82591 | 5514 ft | 228 kts | 81° |
| 2026-04-25 10:17 | 43.25097 | 76.84572 | 5278 ft | 218 kts | 53° |
| 2026-04-25 10:17 | 43.25714 | 76.85638 | 5118 ft | 213 kts | 49° |
| 2026-04-25 10:17 | 43.26988 | 76.87621 | 4790 ft | 204 kts | 48° |
| 2026-04-25 10:17 | 43.27894 | 76.89081 | 4541 ft | 198 kts | 50° |
| 2026-04-25 10:18 | 43.28755 | 76.90527 | 4253 ft | 192 kts | 51° |
| 2026-04-25 10:18 | 43.29509 | 76.91941 | 4031 ft | 175 kts | 55° |
| 2026-04-25 10:18 | 43.30168 | 76.93294 | 3836 ft | 170 kts | 55° |
| 2026-04-25 10:18 | 43.30830 | 76.94611 | 3597 ft | 161 kts | 55° |
| 2026-04-25 10:19 | 43.31427 | 76.95813 | 3374 ft | 144 kts | 55° |
| 2026-04-25 10:19 | 43.31977 | 76.96932 | 3202 ft | 139 kts | 55° |
| 2026-04-25 10:19 | 43.32509 | 76.98016 | 2981 ft | 135 kts | 55° |
| 2026-04-25 10:19 | 43.33044 | 76.99090 | 2836 ft | 135 kts | 54° |
| 2026-04-25 10:20 | 43.33582 | 77.00154 | 2626 ft | 139 kts | 56° |
| 2026-04-25 10:20 | 43.34127 | 77.01282 | 2468 ft | 141 kts | 55° |
| 2026-04-25 10:20 | 43.34681 | 77.02389 | 2305 ft | 140 kts | 56° |
| 2026-04-25 10:20 | 43.35201 | 77.03452 | 2224 ft | 122 kts | 54° |
| 2026-04-25 10:21 | 43.35601 | 77.04270 | 2224 ft | 72 kts | 54° |
| 2026-04-25 10:21 | 43.35786 | 77.04637 | 2222 ft | 26 kts | 56° |
| 2026-04-25 10:21 | 43.35867 | 77.04803 | 2222 ft | 20 kts | 55° |
| 2026-04-25 10:21 | 43.35930 | 77.04931 | 2224 ft | 16 kts | 56° |
| 2026-04-25 10:22 | 43.35969 | 77.05067 | 2223 ft | 16 kts | 116° |
| 2026-04-25 10:22 | 43.35888 | 77.05156 | 2225 ft | 15 kts | 147° |
| 2026-04-25 10:22 | 43.35806 | 77.05165 | 2225 ft | 13 kts | 248° |
| 2026-04-25 10:22 | 43.35762 | 77.05048 | 2225 ft | 15 kts | 237° |
| 2026-04-25 10:23 | 43.35695 | 77.04913 | 2227 ft | 20 kts | 237° |
| 2026-04-25 10:23 | 43.35606 | 77.04729 | 2228 ft | 25 kts | 236° |
| 2026-04-25 10:23 | 43.35511 | 77.04541 | 2228 ft | 24 kts | 234° |
| 2026-04-25 10:23 | 43.35412 | 77.04341 | 2227 ft | 26 kts | 236° |
| 2026-04-25 10:24 | 43.35315 | 77.04147 | 2224 ft | 19 kts | 237° |
| 2026-04-25 10:24 | 43.35238 | 77.03989 | 2224 ft | 21 kts | 239° |
| 2026-04-25 10:24 | 43.35157 | 77.03828 | 2225 ft | 21 kts | 234° |
| 2026-04-25 10:24 | 43.35074 | 77.03661 | 2227 ft | 21 kts | 234° |
| 2026-04-25 10:25 | 43.34986 | 77.03482 | 2223 ft | 24 kts | 236° |
| 2026-04-25 10:25 | 43.34892 | 77.03293 | 2224 ft | 22 kts | 236° |
| 2026-04-25 10:25 | 43.34820 | 77.03111 | 2224 ft | 23 kts | 247° |
| 2026-04-25 10:25 | 43.34788 | 77.02948 | 2226 ft | 16 kts | 261° |
| 2026-04-25 10:26 | 43.34784 | 77.02883 | 2224 ft | 3 kts | 266° |
| 2026-04-25 10:26 | 43.34784 | 77.02874 | 2226 ft | 0 kts | 266° |
| 2026-04-25 10:27 | 43.34782 | 77.02775 | 2225 ft | 13 kts | 271° |
| 2026-04-25 10:27 | 43.34781 | 77.02620 | 2226 ft | 18 kts | 268° |
| 2026-04-25 10:27 | 43.34775 | 77.02449 | 2225 ft | 19 kts | 269° |
| 2026-04-25 10:28 | 43.34782 | 77.02302 | 2226 ft | 15 kts | 271° |
| 2026-04-25 10:28 | 43.34789 | 77.02165 | 2226 ft | 12 kts | 277° |
| 2026-04-25 10:28 | 43.34797 | 77.02040 | 2226 ft | 14 kts | 271° |
| 2026-04-25 10:28 | 43.34803 | 77.01898 | 2225 ft | 16 kts | 275° |
| 2026-04-25 10:29 | 43.34811 | 77.01746 | 2226 ft | 12 kts | 270° |
| 2026-04-25 10:29 | 43.34813 | 77.01648 | 2226 ft | 11 kts | 272° |
| 2026-04-25 10:29 | 43.34819 | 77.01547 | 2225 ft | 8 kts | 281° |
| 2026-04-25 10:29 | 43.34862 | 77.01506 | 2227 ft | 8 kts | 338° |
| 2026-04-25 10:30 | 43.34911 | 77.01482 | 2224 ft | 7 kts | 339° |
| 2026-04-25 10:30 | 43.34937 | 77.01454 | 2227 ft | 7 kts | 303° |
| 2026-04-25 10:30 | 43.34922 | 77.01369 | 2223 ft | 4 kts | 246° |
| 2026-04-25 10:30 | 43.34914 | 77.01346 | 2224 ft | 2 kts | 246° |
| 2026-04-25 10:31 | 43.34911 | 77.01338 | 2224 ft | 0 kts | 246° |